createdAt,value
2017-11-20T00:00:12.522Z,6.28
2017-11-20T00:02:40.171Z,6.70
2017-11-20T00:05:07.606Z,7.22
2017-11-20T00:07:35.045Z,7.12
2017-11-20T00:10:02.471Z,7.07
2017-11-20T00:12:29.894Z,6.93
2017-11-20T00:14:57.318Z,7.60
2017-11-20T00:17:24.758Z,8.25
2017-11-20T00:19:52.181Z,7.22
2017-11-20T00:22:19.604Z,6.50
2017-11-20T00:24:47.023Z,8.05
2017-11-20T00:27:14.450Z,7.05
2017-11-20T00:29:42.576Z,7.25
2017-11-20T00:32:10.781Z,7.25
2017-11-20T00:34:40.795Z,6.82
2017-11-20T00:37:08.776Z,7.22
2017-11-20T00:39:36.662Z,7.30
2017-11-20T00:42:04.096Z,6.87
2017-11-20T00:44:31.522Z,6.97
2017-11-20T00:46:58.937Z,6.65
2017-11-20T00:49:26.362Z,6.82
2017-11-20T00:51:53.789Z,7.90
2017-11-20T00:54:21.225Z,8.07
2017-11-20T00:56:48.649Z,7.85
2017-11-20T00:59:16.106Z,8.00
2017-11-20T01:01:43.537Z,7.28
2017-11-20T01:04:10.958Z,7.10
2017-11-20T01:06:38.385Z,7.05
2017-11-20T01:09:05.834Z,7.30
2017-11-20T01:11:33.249Z,7.82
2017-11-20T01:14:00.673Z,7.65
2017-11-20T01:16:28.104Z,8.00
2017-11-20T01:18:55.546Z,7.50
2017-11-20T01:21:22.962Z,7.50
2017-11-20T01:23:50.378Z,7.62
2017-11-20T01:26:17.802Z,8.25
2017-11-20T01:28:45.233Z,8.70
2017-11-20T01:31:12.670Z,7.22
2017-11-20T01:33:40.095Z,7.22
2017-11-20T01:36:07.512Z,7.90
2017-11-20T01:38:34.933Z,7.95
2017-11-20T01:41:02.358Z,7.50
2017-11-20T01:43:29.797Z,7.85
2017-11-20T01:45:57.221Z,7.47
2017-11-20T01:48:24.637Z,7.62
2017-11-20T01:50:52.057Z,7.93
2017-11-20T01:53:19.482Z,7.47
2017-11-20T01:55:46.919Z,8.02
2017-11-20T01:58:14.332Z,7.55
2017-11-20T02:00:41.748Z,8.00
2017-11-20T02:03:09.165Z,7.72
2017-11-20T02:05:36.587Z,7.50
2017-11-20T02:08:04.034Z,7.40
2017-11-20T02:10:31.445Z,8.05
2017-11-20T02:12:58.870Z,8.02
2017-11-20T02:15:26.299Z,8.50
2017-11-20T02:17:53.722Z,8.65
2017-11-20T02:20:21.152Z,8.70
2017-11-20T02:22:48.577Z,9.57
2017-11-20T02:25:15.989Z,8.80
2017-11-20T02:27:43.405Z,8.77
2017-11-20T02:30:10.828Z,7.82
2017-11-20T02:32:38.270Z,8.80
2017-11-20T02:35:05.694Z,7.78
2017-11-20T02:37:33.122Z,7.95
2017-11-20T02:40:00.535Z,8.52
2017-11-20T02:42:27.954Z,8.07
2017-11-20T02:44:55.397Z,9.13
2017-11-20T02:47:22.818Z,7.80
2017-11-20T02:49:50.234Z,7.50
2017-11-20T02:52:17.670Z,8.18
2017-11-20T02:54:45.089Z,8.52
2017-11-20T02:57:12.512Z,7.82
2017-11-20T02:59:39.937Z,8.20
2017-11-20T03:02:07.362Z,7.12
2017-11-20T03:04:34.798Z,8.00
2017-11-20T03:07:02.212Z,7.05
2017-11-20T03:09:29.632Z,8.15
2017-11-20T03:11:57.061Z,8.27
2017-11-20T03:14:24.511Z,7.50
2017-11-20T03:16:51.932Z,7.60
2017-11-20T03:19:19.361Z,8.35
2017-11-20T03:21:46.802Z,8.63
2017-11-20T03:24:14.220Z,8.43
2017-11-20T03:26:41.641Z,7.50
2017-11-20T03:29:09.061Z,7.93
2017-11-20T03:31:36.483Z,8.60
2017-11-20T03:34:03.920Z,8.38
2017-11-20T03:36:31.337Z,8.63
2017-11-20T03:38:58.763Z,8.65
2017-11-20T03:41:26.191Z,8.02
2017-11-20T03:43:53.621Z,8.75
2017-11-20T03:46:21.059Z,8.35
2017-11-20T03:48:48.479Z,8.23
2017-11-20T03:51:15.902Z,8.40
2017-11-20T03:53:43.324Z,8.65
2017-11-20T03:56:10.747Z,9.02
2017-11-20T03:58:38.218Z,9.18
2017-11-20T04:01:05.642Z,8.65
2017-11-20T04:03:33.058Z,8.65
2017-11-20T04:06:00.489Z,8.23
2017-11-20T04:08:27.912Z,8.88
2017-11-20T04:10:55.341Z,8.63
2017-11-20T04:13:22.758Z,8.50
2017-11-20T04:15:50.170Z,8.23
2017-11-20T04:18:17.613Z,7.90
2017-11-20T04:20:45.039Z,7.85
2017-11-20T04:23:12.474Z,8.23
2017-11-20T04:25:39.889Z,8.02
2017-11-20T04:28:07.311Z,8.13
2017-11-20T04:30:34.726Z,8.50
2017-11-20T04:33:02.153Z,8.40
2017-11-20T04:35:29.589Z,9.20
2017-11-20T04:37:57.019Z,8.40
2017-11-20T04:40:24.434Z,8.73
2017-11-20T04:42:51.845Z,9.63
2017-11-20T04:45:19.270Z,8.77
2017-11-20T04:47:46.708Z,9.93
2017-11-20T04:50:14.134Z,9.32
2017-11-20T04:52:41.552Z,8.88
2017-11-20T04:55:08.972Z,8.73
2017-11-20T04:57:36.380Z,9.05
2017-11-20T05:00:03.821Z,9.05
2017-11-20T05:02:31.243Z,8.90
2017-11-20T05:04:58.665Z,9.23
2017-11-20T05:07:26.082Z,9.45
2017-11-20T05:09:53.501Z,9.32
2017-11-20T05:12:20.946Z,10.10
2017-11-20T05:14:48.374Z,10.00
2017-11-20T05:17:15.793Z,9.80
2017-11-20T05:19:43.217Z,9.77
2017-11-20T05:22:10.644Z,10.85
2017-11-20T05:24:38.077Z,9.95
2017-11-20T05:27:05.502Z,10.60
2017-11-20T05:29:32.928Z,10.30
2017-11-20T05:32:00.359Z,10.55
2017-11-20T05:34:27.881Z,10.57
2017-11-20T05:36:55.327Z,9.40
2017-11-20T05:39:22.750Z,10.88
2017-11-20T05:41:50.196Z,10.10
2017-11-20T05:44:17.621Z,10.52
2017-11-20T05:46:45.042Z,9.05
2017-11-20T05:49:12.944Z,10.98
2017-11-20T05:51:40.365Z,10.48
2017-11-20T05:54:07.790Z,11.20
2017-11-20T05:56:35.219Z,10.25
2017-11-20T05:59:02.707Z,10.88
2017-11-20T06:01:30.486Z,10.88
2017-11-20T06:03:58.043Z,10.52
2017-11-20T06:06:25.801Z,10.45
2017-11-20T06:08:53.352Z,9.95
2017-11-20T06:11:20.766Z,9.82
2017-11-20T06:13:48.210Z,9.65
2017-11-20T06:16:15.657Z,11.43
2017-11-20T06:18:43.845Z,10.85
2017-11-20T06:21:12.295Z,10.98
2017-11-20T06:23:39.897Z,11.02
2017-11-20T06:26:07.342Z,10.88
2017-11-20T06:28:34.790Z,11.43
2017-11-20T06:31:02.229Z,11.57
2017-11-20T06:33:29.657Z,11.07
2017-11-20T06:35:57.086Z,11.00
2017-11-20T06:38:24.534Z,12.32
2017-11-20T06:40:51.965Z,10.50
2017-11-20T06:43:19.389Z,13.30
2017-11-20T06:45:46.817Z,12.05
2017-11-20T06:48:14.237Z,11.80
2017-11-20T06:50:41.675Z,12.05
2017-11-20T06:53:09.102Z,11.55
2017-11-20T06:55:36.529Z,12.63
2017-11-20T06:58:03.957Z,12.98
2017-11-20T07:00:31.386Z,12.10
2017-11-20T07:02:58.831Z,14.68
2017-11-20T07:05:26.254Z,12.02
2017-11-20T07:07:53.681Z,12.80
2017-11-20T07:10:21.109Z,12.90
2017-11-20T07:12:48.533Z,12.60
2017-11-20T07:15:15.973Z,12.77
2017-11-20T07:17:43.406Z,13.80
2017-11-20T07:20:10.841Z,14.77
2017-11-20T07:22:38.304Z,12.98
2017-11-20T07:25:17.622Z,13.85
2017-11-20T07:27:56.716Z,13.55
2017-11-20T07:30:35.930Z,15.25
2017-11-20T07:33:03.446Z,14.65
2017-11-20T07:35:40.878Z,13.20
2017-11-20T07:38:18.162Z,13.18
2017-11-20T07:40:57.422Z,14.23
2017-11-20T07:43:24.837Z,12.70
2017-11-20T07:45:52.278Z,13.88
2017-11-20T07:48:19.708Z,12.65
2017-11-20T07:50:47.170Z,13.05
2017-11-20T07:53:14.705Z,12.93
2017-11-20T07:55:42.450Z,13.55
2017-11-20T07:58:09.884Z,12.35
2017-11-20T08:00:37.309Z,11.93
2017-11-20T08:03:04.739Z,12.23
2017-11-20T08:05:32.186Z,12.05
2017-11-20T08:07:59.640Z,12.10
2017-11-20T08:10:27.054Z,11.50
2017-11-20T08:12:54.515Z,12.10
2017-11-20T08:15:21.951Z,11.75
2017-11-20T08:17:49.369Z,11.82
2017-11-20T08:20:16.803Z,12.50
2017-11-20T08:22:44.575Z,12.05
2017-11-20T08:25:12.022Z,12.80
2017-11-20T08:27:39.445Z,12.55
2017-11-20T08:30:06.878Z,12.73
2017-11-20T08:32:34.313Z,12.10
2017-11-20T08:35:01.774Z,12.55
2017-11-20T08:37:29.222Z,12.65
2017-11-20T08:39:56.865Z,12.02
2017-11-20T08:42:24.314Z,11.55
2017-11-20T08:44:51.752Z,11.63
2017-11-20T08:47:19.329Z,11.60
2017-11-20T08:49:46.774Z,12.82
2017-11-20T08:52:14.209Z,12.73
2017-11-20T08:54:41.640Z,12.30
2017-11-20T08:57:09.148Z,12.00
2017-11-20T08:59:36.590Z,13.02
2017-11-20T09:02:04.051Z,11.90
2017-11-20T09:04:31.495Z,12.65
2017-11-20T09:06:58.922Z,12.40
2017-11-20T09:09:26.350Z,12.75
2017-11-20T09:11:53.782Z,12.70
2017-11-20T09:14:21.225Z,12.23
2017-11-20T09:16:48.671Z,12.70
2017-11-20T09:19:16.376Z,12.40
2017-11-20T09:21:43.825Z,11.75
2017-11-20T09:24:11.256Z,11.70
2017-11-20T09:26:38.704Z,11.95
2017-11-20T09:29:06.135Z,12.43
2017-11-20T09:31:33.557Z,13.80
2017-11-20T09:34:00.998Z,12.55
2017-11-20T09:36:28.426Z,11.77
2017-11-20T09:38:55.874Z,13.57
2017-11-20T09:41:23.321Z,11.75
2017-11-20T09:43:50.753Z,11.40
2017-11-20T09:46:18.189Z,10.98
2017-11-20T09:48:45.618Z,11.10
2017-11-20T09:51:13.066Z,12.20
2017-11-20T09:53:40.498Z,10.70
2017-11-20T09:56:07.928Z,10.30
2017-11-20T09:58:35.358Z,10.18
2017-11-20T10:01:02.845Z,9.98
2017-11-20T10:03:30.287Z,11.15
2017-11-20T10:05:57.724Z,10.65
2017-11-20T10:08:25.170Z,10.52
2017-11-20T10:10:52.616Z,13.00
2017-11-20T10:13:20.044Z,13.62
2017-11-20T10:15:47.498Z,11.40
2017-11-20T10:18:14.927Z,11.12
2017-11-20T10:20:42.524Z,10.95
2017-11-20T10:23:11.204Z,11.38
2017-11-20T10:25:38.713Z,10.95
2017-11-20T10:28:06.142Z,11.27
2017-11-20T10:30:33.574Z,11.02
2017-11-20T10:33:01.008Z,11.38
2017-11-20T10:35:28.457Z,11.38
2017-11-20T10:37:56.250Z,10.45
2017-11-20T10:40:24.142Z,10.80
2017-11-20T10:42:51.568Z,11.57
2017-11-20T10:45:19.005Z,10.50
2017-11-20T10:47:46.437Z,12.93
2017-11-20T10:50:14.844Z,10.38
2017-11-20T10:52:43.583Z,11.10
2017-11-20T10:55:13.878Z,10.70
2017-11-20T10:57:41.314Z,9.13
2017-11-20T11:00:08.866Z,8.23
2017-11-20T11:02:36.302Z,9.15
2017-11-20T11:05:03.770Z,8.85
2017-11-20T11:07:31.197Z,10.07
2017-11-20T11:09:58.627Z,8.73
2017-11-20T11:12:26.070Z,8.95
2017-11-20T11:14:53.499Z,9.68
2017-11-20T11:17:20.926Z,9.18
2017-11-20T11:19:48.529Z,12.10
2017-11-20T11:22:15.965Z,10.10
2017-11-20T11:24:43.399Z,8.88
2017-11-20T11:27:10.969Z,9.50
2017-11-20T11:29:38.389Z,8.98
2017-11-20T11:32:06.840Z,8.85
2017-11-20T11:34:34.257Z,9.63
2017-11-20T11:37:03.220Z,9.10
2017-11-20T11:39:30.656Z,9.57
2017-11-20T11:41:58.077Z,9.77
2017-11-20T11:44:25.509Z,9.07
2017-11-20T11:46:52.946Z,10.75
2017-11-20T11:49:20.406Z,10.05
2017-11-20T11:51:47.837Z,9.57
2017-11-20T11:54:15.420Z,10.50
2017-11-20T11:56:42.974Z,9.07
2017-11-20T11:59:19.611Z,9.63
2017-11-20T12:02:01.325Z,9.50
2017-11-20T12:07:19.924Z,11.10
2017-11-20T12:09:48.465Z,9.13
2017-11-20T12:12:17.389Z,9.48
2017-11-20T12:14:47.960Z,9.45
2017-11-20T12:17:16.141Z,10.70
2017-11-20T12:19:43.597Z,9.95
2017-11-20T12:22:11.036Z,10.43
2017-11-20T12:24:38.481Z,9.95
2017-11-20T12:27:05.914Z,10.93
2017-11-20T12:29:33.346Z,12.93
2017-11-20T12:32:00.770Z,10.65
2017-11-20T12:34:28.197Z,10.27
2017-11-20T12:36:55.642Z,9.95
2017-11-20T12:39:23.074Z,10.10
2017-11-20T12:41:50.514Z,11.45
2017-11-20T12:44:17.945Z,10.32
2017-11-20T12:46:45.373Z,11.80
2017-11-20T12:49:12.818Z,10.80
2017-11-20T12:51:40.256Z,10.40
2017-11-20T12:54:07.681Z,10.70
2017-11-20T12:56:35.114Z,12.18
2017-11-20T12:59:02.540Z,12.02
2017-11-20T13:01:29.992Z,10.38
2017-11-20T13:03:57.416Z,11.60
2017-11-20T13:06:24.853Z,12.50
2017-11-20T13:08:52.296Z,12.25
2017-11-20T13:11:19.716Z,11.23
2017-11-20T13:13:47.161Z,10.50
2017-11-20T13:16:14.638Z,11.23
2017-11-20T13:18:42.088Z,12.07
2017-11-20T13:21:09.523Z,12.10
2017-11-20T13:23:36.949Z,14.10
2017-11-20T13:26:04.397Z,10.73
2017-11-20T13:28:31.835Z,11.88
2017-11-20T13:30:59.263Z,11.50
2017-11-20T13:33:26.685Z,12.00
2017-11-20T13:35:54.114Z,10.77
2017-11-20T13:38:21.558Z,10.68
2017-11-20T13:40:48.990Z,10.50
2017-11-20T13:43:16.421Z,11.73
2017-11-20T13:45:43.871Z,10.63
2017-11-20T13:48:11.309Z,11.05
2017-11-20T13:50:38.743Z,11.82
2017-11-20T13:53:06.177Z,12.57
2017-11-20T13:55:33.651Z,11.32
2017-11-20T13:58:01.099Z,11.20
2017-11-20T14:00:28.538Z,11.90
2017-11-20T14:02:55.975Z,11.48
2017-11-20T14:05:23.417Z,11.20
2017-11-20T14:07:50.845Z,10.35
2017-11-20T14:10:18.298Z,11.43
2017-11-20T14:12:45.734Z,10.60
2017-11-20T14:15:13.170Z,11.77
2017-11-20T14:17:40.592Z,11.30
2017-11-20T14:20:08.079Z,11.60
2017-11-20T14:22:35.481Z,11.38
2017-11-20T14:25:02.922Z,11.23
2017-11-20T14:27:30.358Z,10.35
2017-11-20T14:29:57.790Z,10.52
2017-11-20T14:32:25.218Z,10.43
2017-11-20T14:34:52.657Z,10.23
2017-11-20T14:37:20.105Z,11.30
2017-11-20T14:39:47.537Z,10.80
2017-11-20T14:42:14.970Z,10.00
2017-11-20T14:44:42.402Z,10.18
2017-11-20T14:47:12.275Z,11.25
2017-11-20T14:49:39.706Z,10.45
2017-11-20T14:52:18.937Z,10.75
2017-11-20T14:54:50.112Z,8.82
2017-11-20T14:57:17.546Z,8.73
2017-11-20T14:59:44.972Z,9.25
2017-11-20T15:02:12.415Z,8.27
2017-11-20T15:04:39.862Z,9.23
2017-11-20T15:07:07.293Z,8.48
2017-11-20T15:09:34.722Z,8.15
2017-11-20T15:12:02.153Z,8.90
2017-11-20T15:14:29.652Z,8.15
2017-11-20T15:16:57.114Z,9.25
2017-11-20T15:19:24.542Z,9.18
2017-11-20T15:21:51.970Z,8.40
2017-11-20T15:24:19.398Z,8.27
2017-11-20T15:26:46.851Z,9.13
2017-11-20T15:29:14.282Z,8.70
2017-11-20T15:31:41.714Z,9.65
2017-11-20T15:34:09.146Z,10.70
2017-11-20T15:36:36.599Z,9.10
2017-11-20T15:39:04.027Z,8.50
2017-11-20T15:41:31.474Z,9.90
2017-11-20T15:43:58.906Z,9.02
2017-11-20T15:46:26.341Z,9.02
2017-11-20T15:48:53.767Z,9.00
2017-11-20T15:51:21.198Z,10.40
2017-11-20T15:53:48.638Z,9.55
2017-11-20T15:56:16.062Z,9.98
2017-11-20T15:58:43.485Z,9.57
2017-11-20T16:01:10.917Z,10.07
2017-11-20T16:03:38.341Z,10.18
2017-11-20T16:06:05.794Z,10.25
2017-11-20T16:08:33.225Z,10.95
2017-11-20T16:11:00.658Z,11.55
2017-11-20T16:13:28.095Z,10.93
2017-11-20T16:15:56.355Z,10.10
2017-11-20T16:18:23.801Z,10.57
2017-11-20T16:20:51.234Z,10.00
2017-11-20T16:23:18.678Z,9.52
2017-11-20T16:25:46.115Z,9.65
2017-11-20T16:28:13.546Z,9.60
2017-11-20T16:30:40.994Z,9.98
2017-11-20T16:33:08.422Z,10.20
2017-11-20T16:35:35.852Z,10.68
2017-11-20T16:38:03.274Z,9.95
2017-11-20T16:40:30.711Z,10.50
2017-11-20T16:42:58.146Z,9.40
2017-11-20T16:45:25.584Z,9.60
2017-11-20T16:47:53.009Z,9.23
2017-11-20T16:50:20.438Z,10.30
2017-11-20T16:52:47.873Z,11.55
2017-11-20T16:55:15.321Z,13.45
2017-11-20T16:57:54.560Z,11.48
2017-11-20T17:00:31.907Z,10.82
2017-11-20T17:03:07.269Z,11.10
2017-11-20T17:05:35.356Z,11.90
2017-11-20T17:08:02.808Z,11.98
2017-11-20T17:10:30.291Z,15.38
2017-11-20T17:12:57.713Z,12.95
2017-11-20T17:15:25.146Z,14.50
2017-11-20T17:17:52.594Z,14.40
2017-11-20T17:20:20.031Z,12.90
2017-11-20T17:22:47.467Z,14.18
2017-11-20T17:25:14.894Z,14.77
2017-11-20T17:27:42.321Z,13.82
2017-11-20T17:30:09.753Z,15.77
2017-11-20T17:32:37.195Z,16.52
2017-11-20T17:35:04.648Z,14.20
2017-11-20T17:37:32.077Z,16.37
2017-11-20T17:39:59.514Z,14.43
2017-11-20T17:42:26.955Z,15.15
2017-11-20T17:44:54.384Z,16.58
2017-11-20T17:47:21.841Z,15.02
2017-11-20T17:49:49.274Z,15.48
2017-11-20T17:52:16.702Z,13.98
2017-11-20T17:54:44.129Z,15.30
2017-11-20T17:57:11.558Z,14.73
2017-11-20T17:59:39.022Z,13.93
2017-11-20T18:02:06.470Z,15.40
2017-11-20T18:04:33.898Z,14.52
2017-11-20T18:07:01.330Z,15.13
2017-11-20T18:09:28.760Z,14.10
2017-11-20T18:11:56.201Z,14.68
2017-11-20T18:14:23.641Z,13.90
2017-11-20T18:16:51.070Z,13.75
2017-11-20T18:19:18.497Z,13.32
2017-11-20T18:21:45.933Z,14.18
2017-11-20T18:24:13.386Z,13.48
2017-11-20T18:26:40.825Z,14.77
2017-11-20T18:29:08.254Z,14.30
2017-11-20T18:31:35.689Z,13.85
2017-11-20T18:34:03.118Z,13.50
2017-11-20T18:36:30.553Z,14.80
2017-11-20T18:38:58.001Z,13.68
2017-11-20T18:41:25.447Z,13.65
2017-11-20T18:43:52.878Z,13.07
2017-11-20T18:46:20.305Z,13.18
2017-11-20T18:48:47.737Z,13.55
2017-11-20T18:51:15.190Z,14.10
2017-11-20T18:53:42.626Z,13.85
2017-11-20T18:56:10.056Z,12.55
2017-11-20T18:58:37.490Z,12.93
2017-11-20T19:01:16.617Z,13.45
2017-11-20T19:03:55.926Z,13.20
2017-11-20T19:19:54.197Z,12.70
2017-11-20T19:22:21.644Z,12.48
2017-11-20T19:24:49.075Z,13.05
2017-11-20T19:27:16.526Z,12.40
2017-11-20T19:29:43.954Z,12.20
2017-11-20T19:32:11.382Z,12.98
2017-11-20T19:34:38.819Z,13.30
2017-11-20T19:37:06.281Z,12.05
2017-11-20T19:39:33.725Z,12.55
2017-11-20T19:42:01.158Z,15.02
2017-11-20T19:44:28.614Z,13.35
2017-11-20T19:46:56.046Z,12.85
2017-11-20T19:49:23.473Z,12.25
2017-11-20T19:51:50.904Z,11.52
2017-11-20T19:54:19.205Z,12.98
2017-11-20T19:56:46.668Z,12.57
2017-11-20T19:59:14.160Z,12.52
2017-11-20T20:01:41.604Z,12.10
2017-11-20T20:04:09.065Z,12.52
2017-11-20T20:06:36.512Z,11.65
2017-11-20T20:09:03.982Z,13.60
2017-11-20T20:11:31.438Z,10.80
2017-11-20T20:27:30.392Z,11.00
2017-11-20T20:29:57.895Z,11.88
2017-11-20T20:32:25.328Z,11.57
2017-11-20T20:34:52.757Z,12.13
2017-11-20T20:37:20.226Z,13.45
2017-11-20T20:39:47.723Z,11.63
2017-11-20T20:42:15.162Z,11.15
2017-11-20T20:44:42.619Z,11.00
2017-11-20T20:47:10.055Z,11.85
2017-11-20T20:49:37.502Z,11.12
2017-11-20T20:52:04.934Z,11.85
2017-11-20T20:54:32.382Z,11.30
2017-11-20T20:56:59.814Z,11.27
2017-11-20T20:59:27.308Z,10.32
2017-11-20T21:01:54.756Z,10.23
2017-11-20T21:04:22.200Z,11.32
2017-11-20T21:06:55.300Z,10.27
2017-11-20T21:09:22.742Z,10.55
2017-11-20T21:11:55.857Z,10.15
2017-11-20T21:14:23.301Z,11.00
2017-11-20T21:16:50.758Z,11.32
2017-11-20T21:19:18.206Z,11.45
2017-11-20T21:21:45.634Z,10.60
2017-11-20T21:24:13.062Z,13.25
2017-11-20T21:26:40.493Z,10.25
2017-11-20T21:29:07.944Z,10.93
2017-11-20T21:31:35.374Z,10.70
2017-11-20T21:34:02.806Z,11.45
2017-11-20T21:36:30.241Z,10.75
2017-11-20T21:38:57.674Z,10.93
2017-11-20T21:41:25.106Z,10.50
2017-11-20T21:43:52.534Z,11.35
2017-11-20T21:46:19.993Z,11.15
2017-11-20T21:48:47.429Z,10.55
2017-11-20T21:51:14.878Z,10.30
2017-11-20T21:53:42.309Z,9.85
2017-11-20T21:56:09.741Z,10.82
2017-11-20T21:58:37.174Z,10.90
2017-11-20T22:01:04.605Z,8.95
2017-11-20T22:03:32.039Z,9.70
2017-11-20T22:05:59.475Z,10.13
2017-11-20T22:08:26.921Z,11.00
2017-11-20T22:10:54.358Z,9.90
2017-11-20T22:13:28.273Z,9.52
2017-11-20T22:15:55.694Z,9.88
2017-11-20T22:18:23.125Z,8.77
2017-11-20T22:20:50.556Z,8.82
2017-11-20T22:23:17.994Z,8.93
2017-11-20T22:25:45.437Z,9.27
2017-11-20T22:28:12.862Z,8.75
2017-11-20T22:30:40.311Z,8.85
2017-11-20T22:33:07.742Z,9.10
2017-11-20T22:35:35.175Z,9.50
2017-11-20T22:38:02.606Z,9.65
2017-11-20T22:40:30.042Z,8.80
2017-11-20T22:42:57.469Z,9.15
2017-11-20T22:45:24.901Z,8.45
2017-11-20T22:47:52.350Z,9.80
2017-11-20T22:50:19.794Z,9.00
2017-11-20T22:52:47.237Z,10.38
2017-11-20T22:55:14.665Z,8.75
2017-11-20T22:57:42.092Z,8.50
2017-11-20T23:00:09.529Z,9.43
2017-11-20T23:02:38.298Z,9.77
2017-11-20T23:05:05.738Z,8.15
2017-11-20T23:07:33.178Z,7.70
2017-11-20T23:10:00.621Z,8.70
2017-11-20T23:12:28.052Z,7.93
2017-11-20T23:14:55.486Z,7.72
2017-11-20T23:17:22.914Z,8.20
2017-11-20T23:19:50.344Z,7.40
2017-11-20T23:22:17.764Z,6.82
2017-11-20T23:24:45.206Z,6.70
2017-11-20T23:27:12.650Z,6.28
2017-11-20T23:29:40.070Z,6.00
2017-11-20T23:32:07.496Z,6.35
2017-11-20T23:34:34.926Z,6.10
2017-11-20T23:37:02.346Z,4.97
2017-11-20T23:39:29.785Z,5.25
2017-11-20T23:41:57.217Z,6.30
2017-11-20T23:44:24.658Z,4.75
2017-11-20T23:46:52.093Z,4.60
2017-11-20T23:49:19.526Z,4.40
2017-11-20T23:51:47.765Z,6.10
2017-11-20T23:54:21.070Z,4.32
2017-11-20T23:56:48.493Z,5.22
2017-11-20T23:59:15.928Z,7.72
